Time;durP1;ratioP1;P1;durP2;ratioP2;P2;SDS_P1;SDS_P2;PMS_P1;PMS_P2;Temp;Humidity;BMP_temperature;BMP_pressure;BME280_temperature;BME280_humidity;BME280_pressure;Samples;Min_cycle;Max_cycle;Signal;HPM_P1;HPM_P2
2023/10/24 09:10:54;;;;;;;4.28;2.30;;;13.60;99.90;;;;;;5056808;27;86631;-75
2023/10/24 09:13:20;;;;;;;6.18;2.40;;;13.70;99.90;;;;;;5034937;27;86656;-75
2023/10/24 09:16:08;;;;;;;3.75;2.05;;;13.70;99.90;;;;;;5019208;28;86577;-75
2023/10/24 09:18:35;;;;;;;5.22;2.20;;;13.60;99.90;;;;;;5013193;27;87394;-77
2023/10/24 09:21:21;;;;;;;6.47;2.20;;;13.60;99.90;;;;;;4991140;27;87144;-76
2023/10/24 09:23:48;;;;;;;4.63;2.28;;;13.60;99.90;;;;;;4980284;28;86425;-75
2023/10/24 09:26:13;;;;;;;3.13;2.08;;;13.50;99.90;;;;;;4980247;28;86229;-76
2023/10/24 09:28:54;;;;;;;4.40;2.17;;;13.50;99.90;;;;;;4980462;28;91194;-75
2023/10/24 09:31:23;;;;;;;6.70;2.47;;;13.50;99.90;;;;;;4979912;28;89674;-77
2023/10/24 09:33:48;;;;;;;4.47;2.28;;;13.40;99.90;;;;;;4979346;28;85975;-74
2023/10/24 09:36:24;;;;;;;4.43;2.40;;;13.40;99.90;;;;;;4979415;28;86452;-77
2023/10/24 09:38:58;;;;;;;2.90;2.22;;;13.40;99.90;;;;;;4980265;28;87545;-75
2023/10/24 09:41:24;;;;;;;6.32;2.47;;;13.40;99.90;;;;;;4978841;28;89408;-76
2023/10/24 09:43:55;;;;;;;4.32;2.58;;;13.30;99.90;;;;;;4979375;28;86746;-75
2023/10/24 09:46:28;;;;;;;7.30;2.58;;;13.30;99.90;;;;;;4979326;28;86899;-75
2023/10/24 09:49:13;;;;;;;5.03;2.37;;;13.30;99.90;;;;;;4977486;28;90652;-78
2023/10/24 09:51:42;;;;;;;4.97;2.53;;;13.30;99.90;;;;;;4979484;28;86905;-74
2023/10/24 09:54:08;;;;;;;4.55;2.72;;;13.20;99.90;;;;;;4979840;28;86309;-75
2023/10/24 09:56:34;;;;;;;5.00;2.70;;;13.20;99.90;;;;;;4979791;28;86865;-77
2023/10/24 09:59:02;;;;;;;5.18;3.08;;;13.20;99.90;;;;;;4977723;28;89055;-74
2023/10/24 10:01:28;;;;;;;5.25;2.97;;;13.20;99.90;;;;;;4979545;28;86791;-76
2023/10/24 10:04:00;;;;;;;7.13;3.00;;;13.20;99.90;;;;;;4979441;28;86752;-77
2023/10/24 10:06:30;;;;;;;5.67;3.23;;;13.20;99.90;;;;;;4977053;28;86623;-74
2023/10/24 10:09:00;;;;;;;3.33;2.42;;;13.10;99.90;;;;;;4977035;28;90408;-75
2023/10/24 10:11:31;;;;;;;6.40;3.00;;;13.10;99.90;;;;;;4979436;28;87159;-76
2023/10/24 10:14:15;;;;;;;4.22;2.85;;;13.10;99.90;;;;;;4978757;28;86634;-75
2023/10/24 10:17:10;;;;;;;;;;;13.10;99.90;;;;;;4978271;28;86634;-76
2023/10/24 10:19:44;;;;;;;8.65;3.50;;;13.10;99.90;;;;;;4979985;28;90347;-77
2023/10/24 10:22:43;;;;;;;5.60;2.53;;;13.10;99.90;;;;;;4967747;28;88487;-77
2023/10/24 10:25:12;;;;;;;5.15;3.25;;;13.10;99.90;;;;;;4969955;28;86665;-74
2023/10/24 10:28:15;;;;;;;4.57;3.22;;;13.00;99.90;;;;;;4972546;28;86164;-74
2023/10/24 10:31:03;;;;;;;6.20;3.75;;;13.00;99.90;;;;;;4974760;28;90403;-75
2023/10/24 10:33:29;;;;;;;4.72;3.33;;;13.00;99.90;;;;;;4966969;28;89501;-75
2023/10/24 10:36:01;;;;;;;8.85;4.20;;;12.90;99.90;;;;;;4976524;28;85880;-74
2023/10/24 10:38:46;;;;;;;5.88;3.03;;;12.90;99.90;;;;;;4968895;28;86599;-74
2023/10/24 10:41:23;;;;;;;7.22;3.08;;;12.90;99.90;;;;;;4996919;28;93584;-74
2023/10/24 10:43:53;;;;;;;4.45;3.25;;;12.90;99.90;;;;;;4998767;28;89381;-77
2023/10/24 10:46:26;;;;;;;4.93;2.72;;;12.90;99.90;;;;;;4998008;28;85838;-74
2023/10/24 10:49:12;;;;;;;4.68;2.70;;;12.80;99.90;;;;;;4986026;28;86347;-78
2023/10/24 10:51:37;;;;;;;3.72;2.35;;;12.80;99.90;;;;;;4983023;28;90442;-77
2023/10/24 10:54:25;;;;;;;4.65;2.42;;;12.80;99.90;;;;;;5001672;28;90055;-73
2023/10/24 10:57:28;;;;;;;5.32;2.13;;;12.70;99.90;;;;;;5006054;28;85414;-73
2023/10/24 11:00:43;;;;;;;6.43;2.73;;;12.70;99.90;;;;;;5004867;28;85786;-73
2023/10/24 11:03:36;;;;;;;5.88;2.63;;;12.60;99.90;;;;;;5004217;28;87310;-73
2023/10/24 11:06:28;;;;;;;2.70;1.90;;;12.60;99.90;;;;;;5005221;28;86840;-73
2023/10/24 11:12:25;;;;;;;9.07;2.20;;;12.60;99.90;;;;;;5002788;28;85401;-74
2023/10/24 11:15:13;;;;;;;2.95;1.90;;;12.60;99.90;;;;;;5005814;28;86612;-73
2023/10/24 11:18:08;;;;;;;4.43;1.90;;;12.50;99.90;;;;;;5003973;28;89626;-74
2023/10/24 11:20:33;;;;;;;2.47;1.65;;;12.50;99.90;;;;;;5004339;28;85765;-74
2023/10/24 11:23:00;;;;;;;4.03;2.22;;;12.50;99.90;;;;;;5003850;28;85673;-76
2023/10/24 11:25:27;;;;;;;3.47;1.67;;;12.50;99.90;;;;;;5004699;28;86824;-74
2023/10/24 11:35:04;;;;;;;3.83;1.95;;;12.50;99.90;;;;;;5002448;28;85438;-74
2023/10/24 11:37:29;;;;;;;16.50;2.92;;;12.50;99.90;;;;;;5003458;28;90479;-74
2023/10/24 11:40:45;;;;;;;6.45;1.63;;;12.50;99.90;;;;;;5004922;28;86411;-74
2023/10/24 11:43:35;;;;;;;2.45;1.73;;;12.50;99.90;;;;;;5003648;28;85591;-74
2023/10/24 11:46:00;;;;;;;1.80;1.33;;;12.60;99.90;;;;;;4998439;28;85958;-74
2023/10/24 11:52:34;;;;;;;1.58;1.30;;;13.10;99.90;;;;;;5002274;28;85963;-76
2023/10/24 11:55:08;;;;;;;3.50;0.80;;;13.40;99.90;;;;;;5003328;28;85856;-75
2023/10/24 11:57:34;;;;;;;1.52;1.00;;;13.60;99.90;;;;;;5003377;28;85618;-76
2023/10/24 12:00:03;;;;;;;4.82;0.98;;;13.80;99.90;;;;;;5001737;28;90421;-75
2023/10/24 12:02:54;;;;;;;1.25;0.80;;;13.90;99.90;;;;;;5003826;28;86381;-75
2023/10/24 12:37:12;;;;;;;0.85;0.40;;;15.90;99.90;;;;;;5008078;28;87055;-77
2023/10/24 12:39:38;;;;;;;2.63;0.30;;;16.10;99.90;;;;;;4993297;28;88535;-77
2023/10/24 12:42:04;;;;;;;1.00;0.70;;;16.30;99.90;;;;;;5010355;28;89185;-75
2023/10/24 12:44:29;;;;;;;0.77;0.40;;;16.60;99.90;;;;;;4990875;28;86703;-75
2023/10/24 12:46:55;;;;;;;0.57;0.40;;;16.70;99.90;;;;;;4988820;28;90350;-75
2023/10/24 12:49:21;;;;;;;0.47;0.32;;;16.90;99.90;;;;;;5011844;28;86850;-76
2023/10/24 12:51:47;;;;;;;2.25;0.50;;;17.10;99.90;;;;;;4992411;28;87268;-76
2023/10/24 12:54:12;;;;;;;1.02;0.43;;;17.20;99.90;;;;;;5007862;28;86416;-76
2023/10/24 12:56:38;;;;;;;0.93;0.40;;;17.30;99.90;;;;;;4976795;28;90432;-75
2023/10/24 12:59:04;;;;;;;1.40;0.50;;;17.40;99.90;;;;;;5011579;28;85843;-76
2023/10/24 13:01:30;;;;;;;1.20;0.40;;;17.70;99.90;;;;;;5010548;28;86644;-74
2023/10/24 13:03:55;;;;;;;1.08;0.40;;;17.90;99.90;;;;;;5007918;28;86820;-76
2023/10/24 13:06:22;;;;;;;0.47;0.47;;;18.00;99.90;;;;;;4990767;28;90314;-76
2023/10/24 13:08:48;;;;;;;1.85;0.50;;;18.20;99.90;;;;;;4989981;28;89880;-74
2023/10/24 13:11:14;;;;;;;3.33;0.35;;;18.30;99.30;;;;;;4991411;28;87114;-74
2023/10/24 13:13:39;;;;;;;1.05;0.40;;;18.50;99.20;;;;;;4994727;28;86588;-76
2023/10/24 13:16:08;;;;;;;1.35;0.32;;;18.80;98.30;;;;;;4989292;28;89400;-75
2023/10/24 13:18:34;;;;;;;4.03;0.50;;;19.00;98.00;;;;;;4990101;28;90454;-76
2023/10/24 13:20:59;;;;;;;3.28;0.50;;;19.00;97.20;;;;;;5011567;28;86746;-74
2023/10/24 13:23:25;;;;;;;1.90;0.50;;;18.90;97.70;;;;;;5009647;28;86667;-75
2023/10/24 13:25:51;;;;;;;2.90;0.70;;;18.70;97.80;;;;;;4989996;28;90972;-74
2023/10/24 13:28:16;;;;;;;2.25;0.88;;;18.50;98.30;;;;;;5010781;28;87188;-75
2023/10/24 13:30:44;;;;;;;3.22;0.95;;;18.20;99.20;;;;;;4992592;28;86596;-74
2023/10/24 13:33:10;;;;;;;2.88;1.00;;;18.00;99.90;;;;;;4989424;28;86435;-74
2023/10/24 13:35:36;;;;;;;2.47;1.02;;;17.90;99.90;;;;;;5010097;28;86563;-75
2023/10/24 13:38:20;;;;;;;2.53;1.00;;;17.80;99.90;;;;;;4991710;28;89567;-73
2023/10/24 13:40:45;;;;;;;7.00;1.25;;;17.70;99.90;;;;;;5009991;28;86477;-74
2023/10/24 13:43:11;;;;;;;22.63;2.15;;;17.80;99.90;;;;;;4994199;28;86650;-74
2023/10/24 13:45:37;;;;;;;5.18;0.95;;;18.00;99.90;;;;;;4990417;28;91147;-74
2023/10/24 13:48:03;;;;;;;5.55;1.40;;;18.20;99.90;;;;;;4986567;28;90404;-75
2023/10/24 13:50:28;;;;;;;4.53;1.08;;;18.40;98.90;;;;;;4990469;28;86278;-74
2023/10/24 13:52:54;;;;;;;2.13;1.50;;;18.60;99.40;;;;;;5008321;28;87112;-74
2023/10/24 13:55:22;;;;;;;16.02;2.10;;;18.70;98.80;;;;;;5007379;28;86810;-74
2023/10/24 13:57:48;;;;;;;4.38;1.08;;;18.80;98.50;;;;;;5015443;28;86598;-75
2023/10/24 14:00:14;;;;;;;3.25;1.30;;;18.70;96.80;;;;;;4995001;28;86450;-73
2023/10/24 14:02:40;;;;;;;3.05;1.08;;;18.50;97.60;;;;;;4992911;28;86052;-74
2023/10/24 14:05:06;;;;;;;2.58;1.02;;;18.40;97.30;;;;;;4995699;28;91011;-74
2023/10/24 14:07:32;;;;;;;2.40;1.05;;;18.30;97.50;;;;;;4992829;28;88737;-74
2023/10/24 14:09:58;;;;;;;3.28;1.10;;;18.10;97.50;;;;;;4992184;28;86691;-74
2023/10/24 14:12:23;;;;;;;5.22;0.95;;;17.90;98.20;;;;;;5013381;28;92444;-74
2023/10/24 14:14:49;;;;;;;5.68;1.20;;;17.70;98.60;;;;;;5014894;28;88211;-73
2023/10/24 14:17:23;;;;;;;3.22;0.68;;;17.50;98.00;;;;;;4978767;28;89664;-73
2023/10/24 14:19:53;;;;;;;4.68;0.85;;;17.30;98.40;;;;;;5012933;28;86886;-74
2023/10/24 14:22:18;;;;;;;4.88;0.88;;;17.10;98.80;;;;;;5011109;28;87115;-73
2023/10/24 14:24:44;;;;;;;3.80;1.27;;;16.90;99.30;;;;;;4993209;28;90791;-73
2023/10/24 14:27:10;;;;;;;2.65;0.80;;;16.80;99.70;;;;;;5012952;28;86542;-73
2023/10/24 14:29:47;;;;;;;7.25;1.40;;;16.60;99.90;;;;;;5012012;28;86572;-73
2023/10/24 14:32:12;;;;;;;5.97;1.35;;;16.40;99.90;;;;;;4989469;28;86726;-73
2023/10/24 14:34:38;;;;;;;1.88;0.68;;;16.30;99.90;;;;;;5011708;28;88070;-73
2023/10/24 14:37:24;;;;;;;5.78;0.70;;;16.10;99.90;;;;;;4991157;28;89614;-73
2023/10/24 14:39:59;;;;;;;5.57;1.10;;;16.00;99.90;;;;;;5008579;28;86386;-73
2023/10/24 14:42:25;;;;;;;3.22;0.98;;;15.80;99.90;;;;;;4990808;28;86493;-73
2023/10/24 14:45:09;;;;;;;4.93;0.80;;;15.80;99.90;;;;;;4977021;28;90403;-73
2023/10/24 14:47:34;;;;;;;3.35;1.00;;;15.80;99.90;;;;;;4988525;28;90173;-73
2023/10/24 14:50:00;;;;;;;2.67;0.90;;;16.10;99.90;;;;;;5016227;28;86326;-73
2023/10/24 14:52:27;;;;;;;6.72;1.38;;;16.40;99.90;;;;;;5010945;28;86230;-73
2023/10/24 14:54:57;;;;;;;4.25;0.98;;;16.80;99.90;;;;;;5009185;28;87450;-74
2023/10/24 14:57:22;;;;;;;3.75;0.82;;;17.40;99.40;;;;;;4993423;28;90296;-74
2023/10/24 14:59:48;;;;;;;4.18;0.90;;;17.90;98.10;;;;;;5006376;28;87096;-74
2023/10/24 15:02:14;;;;;;;5.25;1.10;;;18.40;97.00;;;;;;5010011;28;86282;-74
2023/10/24 15:04:40;;;;;;;9.82;1.10;;;19.00;96.10;;;;;;5011408;28;86521;-75
2023/10/24 15:07:08;;;;;;;5.55;1.00;;;19.60;95.00;;;;;;4992036;28;89996;-75
2023/10/24 15:09:34;;;;;;;4.47;0.90;;;20.30;94.10;;;;;;4989496;28;87131;-74
2023/10/24 15:12:03;;;;;;;2.65;0.60;;;20.80;92.20;;;;;;5013748;28;86224;-75
2023/10/24 15:14:29;;;;;;;3.20;0.85;;;21.00;90.10;;;;;;5010658;28;87060;-74
2023/10/24 15:16:55;;;;;;;4.43;0.98;;;21.40;89.20;;;;;;4993072;28;90689;-75
2023/10/24 15:19:21;;;;;;;3.58;0.77;;;21.50;87.90;;;;;;4972991;28;86802;-74
2023/10/24 15:21:46;;;;;;;4.18;0.80;;;21.60;86.40;;;;;;5011419;28;86614;-75
2023/10/24 15:24:12;;;;;;;2.40;0.85;;;21.50;85.30;;;;;;5008984;28;86936;-75
2023/10/24 15:26:38;;;;;;;4.18;1.23;;;21.40;86.90;;;;;;4977607;28;89060;-74
2023/10/24 15:29:04;;;;;;;6.45;1.15;;;21.20;86.60;;;;;;5009477;28;86382;-75
2023/10/24 15:31:34;;;;;;;4.93;1.27;;;20.80;89.00;;;;;;4997444;28;87181;-74
2023/10/24 15:34:02;;;;;;;6.80;1.10;;;20.40;90.20;;;;;;4994476;28;89266;-74
2023/10/24 15:36:31;;;;;;;5.97;1.08;;;19.90;91.10;;;;;;4995586;28;87208;-75
2023/10/24 15:39:00;;;;;;;4.82;0.80;;;19.60;92.00;;;;;;4994571;28;87304;-74
2023/10/24 15:41:26;;;;;;;12.05;1.23;;;19.50;92.00;;;;;;4991178;28;86297;-74
2023/10/24 15:44:01;;;;;;;14.10;2.05;;;19.30;93.00;;;;;;4993159;28;89586;-77
2023/10/24 15:46:27;;;;;;;4.50;0.80;;;19.10;93.00;;;;;;4992920;28;89840;-77
2023/10/24 15:48:53;;;;;;;6.10;1.08;;;18.70;93.30;;;;;;5008324;28;86968;-76
2023/10/24 15:51:21;;;;;;;3.13;0.80;;;18.40;94.40;;;;;;5014331;28;90897;-74
2023/10/24 15:53:48;;;;;;;2.90;0.60;;;18.10;94.90;;;;;;4982493;28;90046;-72
2023/10/24 15:56:14;;;;;;;6.50;0.90;;;17.70;95.80;;;;;;4994945;28;90295;-74
2023/10/24 15:58:41;;;;;;;3.10;0.95;;;17.50;96.80;;;;;;4994671;28;86108;-74
2023/10/24 16:01:14;;;;;;;2.92;0.60;;;17.20;97.60;;;;;;4992174;28;86899;-76
2023/10/24 16:03:41;;;;;;;6.40;1.17;;;16.90;98.10;;;;;;4992152;28;90672;-74
2023/10/24 16:06:15;;;;;;;5.35;1.00;;;16.60;98.90;;;;;;4996148;28;89728;-73
2023/10/24 16:08:40;;;;;;;3.85;1.00;;;16.40;99.50;;;;;;4996234;28;86502;-74
2023/10/24 16:11:06;;;;;;;5.20;0.80;;;16.20;99.90;;;;;;5009970;28;86220;-73
2023/10/24 16:13:32;;;;;;;4.65;1.08;;;16.00;99.90;;;;;;4998632;28;90355;-74
2023/10/24 16:15:58;;;;;;;4.43;0.98;;;15.70;99.90;;;;;;4994662;28;90378;-73
2023/10/24 16:18:24;;;;;;;9.75;1.17;;;15.50;99.90;;;;;;5010651;28;86683;-77
2023/10/24 16:21:01;;;;;;;4.80;1.00;;;15.40;99.90;;;;;;4992682;28;86530;-74
2023/10/24 16:23:30;;;;;;;5.30;1.83;;;15.20;99.90;;;;;;5010955;28;87343;-74
2023/10/24 16:26:06;;;;;;;6.25;1.00;;;15.00;99.90;;;;;;5014138;28;90514;-75
2023/10/24 16:28:35;;;;;;;5.00;1.35;;;14.80;99.90;;;;;;5013057;28;86449;-74
2023/10/24 16:31:00;;;;;;;5.07;1.30;;;14.70;99.90;;;;;;4995724;28;86259;-77
2023/10/24 16:33:26;;;;;;;3.45;1.38;;;14.60;99.90;;;;;;4997395;28;90122;-75
2023/10/24 16:35:52;;;;;;;5.90;2.22;;;14.40;99.90;;;;;;4996115;28;90247;-73
2023/10/24 16:38:18;;;;;;;5.20;1.20;;;14.30;99.90;;;;;;4981082;28;86225;-73
2023/10/24 16:40:49;;;;;;;4.85;1.48;;;14.20;99.90;;;;;;4994551;28;92091;-75
2023/10/24 16:43:15;;;;;;;6.15;1.45;;;14.10;99.90;;;;;;4985278;28;90008;-75
2023/10/24 16:45:40;;;;;;;99.22;6.03;;;14.00;99.90;;;;;;4995860;28;90096;-74
2023/10/24 16:48:06;;;;;;;3.55;1.20;;;14.00;99.90;;;;;;5016656;28;86018;-74
2023/10/24 16:50:55;;;;;;;11.38;2.08;;;13.90;99.90;;;;;;4985711;28;87288;-72
2023/10/24 16:53:21;;;;;;;4.45;0.82;;;13.80;99.90;;;;;;5025112;28;87743;-72
2023/10/24 16:55:48;;;;;;;1.75;0.90;;;13.70;99.90;;;;;;5009494;28;87712;-72
2023/10/24 16:58:17;;;;;;;2.08;1.58;;;13.70;99.90;;;;;;5030256;28;86406;-76
2023/10/24 17:01:20;;;;;;;5.65;1.10;;;13.60;99.90;;;;;;4990371;28;86404;-73
2023/10/24 17:03:46;;;;;;;3.40;0.90;;;13.50;99.90;;;;;;5015638;28;90714;-72
2023/10/24 17:06:12;;;;;;;2.38;0.60;;;13.40;99.90;;;;;;5028237;28;86589;-72
2023/10/24 17:08:38;;;;;;;2.35;0.65;;;13.30;99.90;;;;;;5024709;28;86618;-72
2023/10/24 17:11:07;;;;;;;1.15;0.60;;;13.20;99.90;;;;;;5020677;28;86216;-74
2023/10/24 17:13:32;;;;;;;2.67;0.50;;;13.20;99.90;;;;;;5024868;28;86919;-73
2023/10/24 17:15:58;;;;;;;2.67;0.55;;;13.10;99.90;;;;;;5009356;28;90284;-72
2023/10/24 17:18:25;;;;;;;3.35;0.73;;;13.00;99.90;;;;;;5004857;28;86582;-72
2023/10/24 17:20:51;;;;;;;3.60;0.63;;;13.00;99.90;;;;;;5011269;28;86403;-73
2023/10/24 17:23:17;;;;;;;6.57;0.70;;;12.90;99.90;;;;;;5008166;28;90707;-72
2023/10/24 17:25:43;;;;;;;3.20;0.80;;;12.90;99.90;;;;;;5025841;28;86415;-74
2023/10/24 17:28:08;;;;;;;4.47;0.68;;;12.80;99.90;;;;;;5004745;28;86121;-72
2023/10/24 17:30:34;;;;;;;4.30;1.00;;;12.80;99.90;;;;;;5026060;28;86186;-72
2023/10/24 17:33:00;;;;;;;3.67;0.88;;;12.80;99.90;;;;;;5013134;28;90190;-74
2023/10/24 17:35:27;;;;;;;4.90;1.13;;;12.80;99.90;;;;;;5008817;28;89628;-73
2023/10/24 17:37:53;;;;;;;2.20;0.90;;;12.80;99.90;;;;;;5004344;28;86181;-72
2023/10/24 17:40:19;;;;;;;3.13;1.17;;;12.70;99.90;;;;;;5006531;28;85918;-72
2023/10/24 17:42:45;;;;;;;5.47;1.20;;;12.70;99.90;;;;;;5012426;28;89859;-72
2023/10/24 17:45:12;;;;;;;4.45;1.58;;;12.60;99.90;;;;;;5025743;28;86954;-72
2023/10/24 17:47:43;;;;;;;4.15;1.30;;;12.60;99.90;;;;;;5009220;28;86077;-73
2023/10/24 17:50:09;;;;;;;7.85;1.30;;;12.50;99.90;;;;;;5008354;28;85895;-72
2023/10/24 17:52:35;;;;;;;4.05;1.23;;;12.50;99.90;;;;;;5009622;28;89991;-76
2023/10/24 17:55:01;;;;;;;3.90;1.55;;;12.40;99.90;;;;;;5025979;28;88858;-74
2023/10/24 17:57:26;;;;;;;4.65;1.27;;;12.40;99.90;;;;;;5028620;28;85919;-73
2023/10/24 17:59:54;;;;;;;4.65;1.05;;;12.30;99.90;;;;;;5028328;28;85758;-73
2023/10/24 18:02:21;;;;;;;3.08;0.90;;;12.30;99.90;;;;;;5008503;28;90318;-72
2023/10/24 18:04:46;;;;;;;4.03;1.45;;;12.20;99.90;;;;;;5019497;28;85836;-76
2023/10/24 18:07:16;;;;;;;4.38;1.45;;;12.20;99.90;;;;;;5030223;28;86449;-72
2023/10/24 18:09:43;;;;;;;3.15;1.25;;;12.10;99.90;;;;;;5009469;28;85932;-73
2023/10/24 18:12:09;;;;;;;1.73;1.20;;;12.10;99.90;;;;;;5009978;28;90669;-72
2023/10/24 18:14:35;;;;;;;3.50;1.30;;;12.10;99.90;;;;;;5008438;28;89054;-74
2023/10/24 18:17:01;;;;;;;4.45;1.77;;;12.10;99.90;;;;;;4994661;28;85898;-72
2023/10/24 18:19:26;;;;;;;1.90;1.10;;;12.00;99.90;;;;;;5026583;28;85865;-77
2023/10/24 18:21:52;;;;;;;3.90;1.30;;;12.00;99.90;;;;;;5027395;28;87379;-74
2023/10/24 18:24:18;;;;;;;2.25;1.15;;;11.90;99.90;;;;;;5006033;28;88411;-71
2023/10/24 18:26:44;;;;;;;2.72;1.20;;;11.90;99.90;;;;;;5005824;28;86044;-73
2023/10/24 18:29:09;;;;;;;5.88;1.55;;;11.80;99.90;;;;;;4991221;28;85941;-73
2023/10/24 18:31:35;;;;;;;3.58;1.80;;;11.80;99.90;;;;;;5008221;28;90816;-73
2023/10/24 18:34:01;;;;;;;5.03;1.60;;;11.80;99.90;;;;;;5003610;28;89874;-73
2023/10/24 18:36:28;;;;;;;4.20;1.55;;;11.80;99.90;;;;;;5026554;28;86059;-71
2023/10/24 18:38:54;;;;;;;4.13;1.63;;;11.70;99.90;;;;;;5002670;28;85769;-72
2023/10/24 18:41:25;;;;;;;2.67;1.15;;;11.70;99.90;;;;;;5010218;28;90365;-72
2023/10/24 18:43:50;;;;;;;5.68;1.60;;;11.60;99.90;;;;;;5028606;28;86032;-72
2023/10/24 18:46:16;;;;;;;8.85;1.65;;;11.60;99.90;;;;;;5012531;28;86464;-72
2023/10/24 18:48:45;;;;;;;9.23;2.78;;;11.60;99.90;;;;;;4994825;28;85899;-72
2023/10/24 18:51:14;;;;;;;5.90;1.65;;;11.50;99.90;;;;;;4995530;28;90273;-73
2023/10/24 18:53:50;;;;;;;3.42;1.77;;;11.50;99.90;;;;;;5032167;28;86506;-72
2023/10/24 18:56:38;;;;;;;3.63;1.67;;;11.40;99.90;;;;;;5032098;28;85699;-73
2023/10/24 18:59:12;;;;;;;11.73;1.90;;;11.40;99.90;;;;;;4993011;28;88491;-73
2023/10/24 19:01:38;;;;;;;8.32;2.45;;;11.40;99.90;;;;;;5008747;28;90505;-73
2023/10/24 19:04:10;;;;;;;8.45;1.48;;;11.30;99.90;;;;;;4995859;28;89440;-77
2023/10/24 19:06:39;;;;;;;4.88;1.38;;;11.30;99.90;;;;;;5013349;28;85878;-75
2023/10/24 19:09:13;;;;;;;3.75;1.30;;;11.30;99.90;;;;;;5006113;28;85746;-72
2023/10/24 19:11:39;;;;;;;7.95;2.33;;;11.20;99.90;;;;;;4992843;28;90407;-72
2023/10/24 19:14:07;;;;;;;8.63;2.00;;;11.20;99.90;;;;;;4995723;28;89877;-72
2023/10/24 19:17:26;;;;;;;7.70;1.67;;;11.10;99.90;;;;;;5009243;28;86242;-71
2023/10/24 19:19:52;;;;;;;10.05;2.88;;;11.10;99.90;;;;;;5032811;28;86264;-72
2023/10/24 19:22:20;;;;;;;3.60;1.70;;;11.00;99.90;;;;;;5024794;28;92099;-72
2023/10/24 19:24:56;;;;;;;9.40;1.90;;;11.00;99.90;;;;;;4994307;28;88642;-72
2023/10/24 19:27:25;;;;;;;5.38;1.80;;;10.90;99.90;;;;;;5009160;28;86053;-72
2023/10/24 19:29:51;;;;;;;8.23;1.98;;;10.90;99.90;;;;;;5009964;28;86354;-72
2023/10/24 19:32:17;;;;;;;7.97;2.53;;;10.90;99.90;;;;;;4977346;28;89978;-73
2023/10/24 19:34:43;;;;;;;8.43;2.20;;;10.90;99.90;;;;;;4990326;28;86054;-72
2023/10/24 19:37:15;;;;;;;4.18;1.85;;;10.90;99.90;;;;;;4989696;28;87498;-73
2023/10/24 19:39:41;;;;;;;8.43;2.60;;;10.90;99.90;;;;;;4974495;28;86243;-72
2023/10/24 19:42:19;;;;;;;5.35;2.25;;;10.80;99.90;;;;;;4993857;28;88884;-72
2023/10/24 19:44:45;;;;;;;9.32;2.13;;;10.80;99.90;;;;;;4999408;28;89970;-72
2023/10/24 19:47:15;;;;;;;5.25;1.90;;;10.80;99.90;;;;;;5008857;28;86244;-73
2023/10/24 19:49:43;;;;;;;6.60;2.10;;;10.80;99.90;;;;;;4997071;28;86482;-72
2023/10/24 19:52:21;;;;;;;8.40;2.20;;;10.70;99.90;;;;;;4990481;28;90449;-73
2023/10/24 19:54:48;;;;;;;5.22;2.20;;;10.70;99.90;;;;;;4973628;28;89941;-72
2023/10/24 19:57:27;;;;;;;3.70;1.98;;;10.70;99.90;;;;;;4984327;28;86002;-72
2023/10/24 19:59:57;;;;;;;6.32;2.25;;;10.60;99.90;;;;;;5009204;28;86134;-72
2023/10/24 20:02:26;;;;;;;4.93;2.22;;;10.60;99.90;;;;;;4973894;28;90568;-73
2023/10/24 20:05:03;;;;;;;6.20;1.90;;;10.60;99.90;;;;;;4987625;28;86363;-73
2023/10/24 20:07:32;;;;;;;5.55;1.65;;;10.50;99.90;;;;;;4998785;28;85880;-73
2023/10/24 20:10:00;;;;;;;7.55;2.35;;;10.50;99.90;;;;;;4979283;28;85814;-72
2023/10/24 20:12:26;;;;;;;5.78;2.28;;;10.50;99.90;;;;;;4994835;28;85984;-72
2023/10/24 20:14:59;;;;;;;5.63;2.40;;;10.40;99.90;;;;;;5003822;28;85839;-72
2023/10/24 20:17:30;;;;;;;6.65;1.73;;;10.40;99.90;;;;;;4983330;28;85744;-76
2023/10/24 20:20:20;;;;;;;6.82;1.80;;;10.40;99.90;;;;;;5011753;28;85948;-72
2023/10/24 20:22:45;;;;;;;3.53;1.60;;;10.30;99.90;;;;;;5009017;28;86936;-72
2023/10/24 20:25:21;;;;;;;9.10;1.75;;;10.30;99.90;;;;;;5006167;28;88337;-74
2023/10/24 20:27:47;;;;;;;6.13;2.20;;;10.30;99.90;;;;;;5001479;28;85926;-74
2023/10/24 20:30:22;;;;;;;5.63;1.48;;;10.20;99.90;;;;;;4990694;28;86663;-72
2023/10/24 20:32:48;;;;;;;5.93;2.10;;;10.20;99.90;;;;;;4997054;28;90644;-72
2023/10/24 20:35:44;;;;;;;5.53;1.80;;;10.20;99.90;;;;;;5004782;28;89441;-74
2023/10/24 20:38:13;;;;;;;9.20;2.38;;;10.20;99.90;;;;;;5006082;28;86439;-71
2023/10/24 20:40:41;;;;;;;6.90;1.80;;;10.10;99.90;;;;;;5006129;28;90365;-72
2023/10/24 20:43:07;;;;;;;5.47;1.95;;;10.10;99.90;;;;;;5024916;28;86600;-75
2023/10/24 20:45:34;;;;;;;6.70;2.35;;;10.10;99.90;;;;;;5009532;28;89635;-72
2023/10/24 20:48:33;;;;;;;9.35;2.08;;;10.10;99.90;;;;;;5006320;28;85908;-72
2023/10/24 20:50:59;;;;;;;4.43;1.95;;;10.10;99.90;;;;;;5029833;28;85820;-72
2023/10/24 20:53:40;;;;;;;4.90;1.83;;;10.10;99.90;;;;;;5010077;28;90784;-75
2023/10/24 20:56:06;;;;;;;18.02;4.80;;;10.00;99.90;;;;;;5000821;28;94009;-72
2023/10/24 20:58:32;;;;;;;5.30;1.77;;;10.00;99.90;;;;;;5011831;28;86655;-72
2023/10/24 21:00:57;;;;;;;7.25;1.77;;;10.00;99.90;;;;;;5013661;28;85913;-72
2023/10/24 21:03:32;;;;;;;7.88;1.70;;;10.00;99.90;;;;;;5027377;28;87589;-72
2023/10/24 21:06:08;;;;;;;8.13;2.03;;;9.90;99.90;;;;;;5033873;27;86888;-71
2023/10/24 21:08:34;;;;;;;6.63;1.80;;;9.90;99.90;;;;;;5001640;28;85989;-72
2023/10/24 21:11:05;;;;;;;6.80;2.17;;;9.90;99.90;;;;;;5004846;28;85972;-72
2023/10/24 21:13:33;;;;;;;6.40;2.63;;;9.90;99.90;;;;;;5029434;28;90503;-71
2023/10/24 21:16:17;;;;;;;4.07;1.48;;;9.90;99.90;;;;;;5026214;28;85795;-73
2023/10/24 21:18:43;;;;;;;3.47;1.60;;;9.80;99.90;;;;;;4996363;28;86781;-72
2023/10/24 21:21:17;;;;;;;6.53;1.80;;;9.80;99.90;;;;;;4997961;28;86020;-72
2023/10/24 21:23:43;;;;;;;5.65;1.40;;;9.80;99.90;;;;;;4975954;28;89643;-72
2023/10/24 21:26:22;;;;;;;6.88;1.15;;;9.80;99.90;;;;;;4987306;28;86070;-73
2023/10/24 21:29:06;;;;;;;8.43;2.00;;;9.70;99.90;;;;;;4992060;28;86009;-71
2023/10/24 21:31:34;;;;;;;5.25;1.50;;;9.70;99.90;;;;;;5008831;28;85999;-72
2023/10/24 21:34:02;;;;;;;5.13;1.40;;;9.70;99.90;;;;;;4992426;28;87546;-72
2023/10/24 21:36:28;;;;;;;3.50;1.83;;;9.60;99.90;;;;;;4990475;28;89356;-73
2023/10/24 21:38:54;;;;;;;5.20;1.92;;;9.60;99.90;;;;;;5010441;28;86038;-72
2023/10/24 21:41:25;;;;;;;6.93;1.60;;;9.60;99.90;;;;;;5005957;28;85902;-72
2023/10/24 21:43:51;;;;;;;5.53;2.00;;;9.60;99.90;;;;;;5033509;28;87023;-71
2023/10/24 21:46:48;;;;;;;4.82;1.80;;;9.50;99.90;;;;;;5028009;28;86244;-72
2023/10/24 21:49:14;;;;;;;7.03;1.80;;;9.50;99.90;;;;;;5032741;28;86275;-71
2023/10/24 21:51:40;;;;;;;8.80;1.80;;;9.50;99.90;;;;;;5000661;28;86136;-72
2023/10/24 21:54:17;;;;;;;6.00;2.35;;;9.40;99.90;;;;;;5024127;28;87024;-72
2023/10/24 21:57:09;;;;;;;4.00;1.50;;;9.40;99.90;;;;;;5033579;28;86461;-72
2023/10/24 21:59:35;;;;;;;5.18;1.85;;;9.40;99.90;;;;;;5004681;28;85805;-72
2023/10/24 22:02:03;;;;;;;5.72;1.88;;;9.30;99.90;;;;;;5010770;28;85821;-72
2023/10/24 22:04:28;;;;;;;7.40;2.92;;;9.30;99.90;;;;;;5027456;28;86928;-73
2023/10/24 22:07:03;;;;;;;4.07;1.95;;;9.30;99.90;;;;;;5013512;28;89291;-71
2023/10/24 22:09:29;;;;;;;9.57;1.90;;;9.20;99.90;;;;;;5013931;28;87662;-72
2023/10/24 22:11:56;;;;;;;10.63;2.10;;;9.20;99.90;;;;;;5026552;28;85723;-72
2023/10/24 22:14:21;;;;;;;7.90;1.92;;;9.20;99.90;;;;;;5022849;28;87073;-72
2023/10/24 22:16:47;;;;;;;7.90;1.85;;;9.20;99.90;;;;;;5023973;28;87155;-72
2023/10/24 22:19:13;;;;;;;7.40;1.90;;;9.20;99.90;;;;;;5036205;28;85782;-71
2023/10/24 22:21:46;;;;;;;13.32;2.03;;;9.20;99.90;;;;;;5026218;28;86172;-72
2023/10/24 22:24:12;;;;;;;;;;;9.10;99.90;;;;;;5009919;28;90313;-71
2023/10/24 22:26:48;;;;;;;4.13;1.60;;;9.10;99.90;;;;;;5018938;28;89591;-71
2023/10/24 22:29:14;;;;;;;7.43;1.80;;;9.10;99.90;;;;;;5005392;28;86123;-71
2023/10/24 22:32:03;;;;;;;4.97;2.20;;;9.10;99.90;;;;;;5035271;28;86391;-72
2023/10/24 22:34:57;;;;;;;9.85;2.10;;;9.10;99.90;;;;;;5015901;28;89798;-71
2023/10/24 22:37:43;;;;;;;6.88;2.00;;;9.10;99.90;;;;;;5024595;28;86164;-71
2023/10/24 22:40:09;;;;;;;5.88;1.75;;;9.10;99.90;;;;;;5019402;28;88532;-71
2023/10/24 22:43:21;;;;;;;7.93;2.55;;;9.10;99.90;;;;;;5016555;28;86100;-71
2023/10/24 22:45:47;;;;;;;14.98;2.60;;;9.10;99.90;;;;;;5036776;28;85841;-71
2023/10/24 22:48:24;;;;;;;8.23;2.10;;;9.10;99.90;;;;;;5021091;28;88337;-73
2023/10/24 22:50:52;;;;;;;7.43;2.38;;;9.10;99.90;;;;;;5029669;28;85917;-71
2023/10/24 22:53:30;;;;;;;5.85;2.08;;;9.10;99.90;;;;;;5011300;28;85974;-72
2023/10/24 22:55:55;;;;;;;6.30;2.10;;;9.10;99.90;;;;;;4988872;28;94652;-71
2023/10/24 22:58:21;;;;;;;4.30;1.80;;;9.10;99.90;;;;;;5012203;28;86363;-71
2023/10/24 23:01:11;;;;;;;5.85;2.00;;;9.10;99.90;;;;;;5007249;28;85730;-71
2023/10/24 23:03:37;;;;;;;6.65;1.80;;;9.10;99.90;;;;;;4997111;28;86030;-72